Terminal Aerodrome Forecast
Issued by NWS

Home | Current Version | Previous Version | Text Only | Print | Product List | Glossary On
Versions: 1 2 3 4 5 6 7 8 9 10 11 12 13 14
440
FTUS46 KSEW 072131 AAA
TAFBFI
TAF AMD
KBFI 072131Z 0722/0818 32006KT P6SM BKN070 OVC200
     FM080000 VRB03KT P6SM SCT120 BKN200
     FM080600 00000KT P6SM SCT200
     FM080900 00000KT P6SM VCFG SCT200
     FM081200 00000KT 4SM MIFG FEW007=

USA.gov is the U.S. government's official web portal to all federal, state and local government web resources and services.